createdAt,value
2019-05-13T00:00:10.388Z,97380.03
2019-05-13T00:02:40.022Z,97369.03
2019-05-13T00:05:10.055Z,97374.22
2019-05-13T00:07:39.639Z,97373.20
2019-05-13T00:10:09.677Z,97380.72
2019-05-13T00:12:39.272Z,97384.41
2019-05-13T00:15:10.213Z,97380.75
2019-05-13T00:17:39.929Z,97377.89
2019-05-13T00:20:09.901Z,97380.56
2019-05-13T00:22:39.732Z,97385.41
2019-05-13T00:25:09.602Z,97385.07
2019-05-13T00:27:39.272Z,97385.41
2019-05-13T00:30:09.623Z,97392.91
2019-05-13T00:32:39.286Z,97391.91
2019-05-13T00:35:09.277Z,97390.77
2019-05-13T00:37:38.930Z,97408.73
2019-05-13T00:40:08.951Z,97411.17
2019-05-13T00:42:38.586Z,97405.05
2019-05-13T00:45:08.582Z,97408.87
2019-05-13T00:47:38.217Z,97420.88
2019-05-13T00:50:07.947Z,97429.58
2019-05-13T00:52:37.539Z,97425.42
2019-05-13T00:55:09.961Z,97416.91
2019-05-13T00:57:39.164Z,97424.41
2019-05-13T01:00:09.812Z,97433.94
2019-05-13T01:02:39.489Z,97432.09
2019-05-13T01:05:09.402Z,97434.09
2019-05-13T01:07:38.994Z,97436.11
2019-05-13T01:10:09.035Z,97436.77
2019-05-13T01:12:38.740Z,97445.16
2019-05-13T01:15:08.778Z,97441.42
2019-05-13T01:17:38.437Z,97441.09
2019-05-13T01:20:09.876Z,97444.38
2019-05-13T01:22:39.492Z,97433.35
2019-05-13T01:25:09.392Z,97435.70
2019-05-13T01:27:38.976Z,97451.19
2019-05-13T01:30:09.814Z,97430.03
2019-05-13T01:32:39.410Z,97432.54
2019-05-13T01:35:09.607Z,97442.72
2019-05-13T01:37:42.762Z,97431.69
2019-05-13T01:40:13.539Z,97430.30
2019-05-13T01:42:44.491Z,97436.95
2019-05-13T01:45:15.205Z,97428.13
2019-05-13T01:47:44.829Z,97437.02
2019-05-13T01:50:14.854Z,97438.38
2019-05-13T01:52:44.797Z,97441.58
2019-05-13T01:55:14.855Z,97439.66
2019-05-13T01:57:44.710Z,97435.98
2019-05-13T02:00:15.022Z,97425.48
2019-05-13T02:02:44.806Z,97427.14
2019-05-13T02:05:14.810Z,97419.97
2019-05-13T02:07:56.980Z,97425.66
2019-05-13T02:10:18.248Z,97421.16
2019-05-13T02:12:48.208Z,97424.30
2019-05-13T02:15:18.050Z,97429.11
2019-05-13T02:17:47.679Z,97420.97
2019-05-13T02:20:17.601Z,97425.30
2019-05-13T02:22:47.236Z,97419.80
2019-05-13T02:25:16.823Z,97423.66
2019-05-13T02:27:46.530Z,97424.48
2019-05-13T02:30:16.739Z,97429.14
2019-05-13T02:32:46.480Z,97419.97
2019-05-13T02:35:16.116Z,97423.31
2019-05-13T02:37:45.780Z,97422.97
2019-05-13T02:40:15.810Z,97417.98
2019-05-13T02:42:45.489Z,97427.77
2019-05-13T02:45:15.186Z,97414.41
2019-05-13T02:47:44.815Z,97422.59
2019-05-13T02:50:14.753Z,97428.41
2019-05-13T02:52:44.706Z,97414.05
2019-05-13T02:55:14.672Z,97423.75
2019-05-13T02:57:44.306Z,97422.94
2019-05-13T03:00:14.444Z,97434.75
2019-05-13T03:02:44.280Z,97431.08
2019-05-13T03:05:14.738Z,97429.72
2019-05-13T03:07:44.363Z,97409.75
2019-05-13T03:10:14.851Z,97418.03
2019-05-13T03:12:44.481Z,97417.53
2019-05-13T03:15:14.782Z,97424.50
2019-05-13T03:17:53.322Z,97420.84
2019-05-13T03:20:23.375Z,97414.67
2019-05-13T03:22:53.163Z,97415.16
2019-05-13T03:25:23.182Z,97420.47
2019-05-13T03:27:53.946Z,97414.52
2019-05-13T03:30:26.038Z,97424.16
2019-05-13T03:33:02.255Z,97420.51
2019-05-13T03:35:28.029Z,97426.69
2019-05-13T03:37:58.162Z,97418.69
2019-05-13T03:40:29.165Z,97415.50
2019-05-13T03:43:02.766Z,97413.38
2019-05-13T03:45:34.254Z,97415.00
2019-05-13T03:48:04.470Z,97419.66
2019-05-13T03:50:34.957Z,97412.23
2019-05-13T03:53:04.855Z,97414.73
2019-05-13T03:55:34.878Z,97414.22
2019-05-13T03:58:04.732Z,97411.07
2019-05-13T04:00:34.910Z,97425.16
2019-05-13T04:03:04.814Z,97426.69
2019-05-13T04:05:34.667Z,97434.02
2019-05-13T04:08:04.490Z,97429.34
2019-05-13T04:10:34.217Z,97430.86
2019-05-13T04:13:04.266Z,97428.68
2019-05-13T04:15:34.187Z,97431.38
2019-05-13T04:18:03.815Z,97438.56
2019-05-13T04:20:33.780Z,97448.55
2019-05-13T04:23:03.559Z,97439.70
2019-05-13T04:25:33.180Z,97458.88
2019-05-13T04:28:03.562Z,97463.70
2019-05-13T04:30:33.545Z,97463.27
2019-05-13T04:33:03.564Z,97458.65
2019-05-13T04:35:33.665Z,97466.37
2019-05-13T04:38:05.260Z,97466.75
2019-05-13T04:40:34.717Z,97476.67
2019-05-13T04:43:04.552Z,97470.98
2019-05-13T04:45:34.210Z,97479.85
2019-05-13T04:48:03.974Z,97476.39
2019-05-13T04:50:33.560Z,97475.34
2019-05-13T04:53:03.672Z,97481.59
2019-05-13T04:55:33.568Z,97488.77
2019-05-13T04:58:03.901Z,97487.58
2019-05-13T05:01:02.354Z,97492.72
2019-05-13T05:03:53.168Z,97493.75
2019-05-13T05:06:44.943Z,97490.11
2019-05-13T05:10:22.054Z,97503.30
2019-05-13T05:12:57.745Z,97495.33
2019-05-13T05:15:54.133Z,97500.11
2019-05-13T05:19:02.272Z,97495.43
2019-05-13T05:21:55.451Z,97498.09
2019-05-13T05:24:44.515Z,97497.44
2019-05-13T05:27:47.418Z,97485.97
2019-05-13T05:31:11.511Z,97502.52
2019-05-13T05:34:15.462Z,97500.59
2019-05-13T05:37:04.486Z,97492.59
2019-05-13T05:39:34.267Z,97492.95
2019-05-13T05:42:07.503Z,97496.47
2019-05-13T05:44:42.198Z,97501.70
2019-05-13T05:47:14.081Z,97503.88
2019-05-13T05:49:45.785Z,97504.22
2019-05-13T05:52:17.626Z,97505.91
2019-05-13T05:54:51.726Z,97519.24
2019-05-13T05:57:23.697Z,97513.07
2019-05-13T05:59:56.259Z,97516.92
2019-05-13T06:02:28.377Z,97513.22
2019-05-13T06:05:02.133Z,97515.08
2019-05-13T06:07:32.367Z,97518.76
2019-05-13T06:10:02.434Z,97516.73
2019-05-13T06:12:33.539Z,97521.92
2019-05-13T06:15:03.311Z,97516.71
2019-05-13T06:17:33.212Z,97531.57
2019-05-13T06:20:04.462Z,97521.24
2019-05-13T06:22:34.938Z,97529.61
2019-05-13T06:25:09.094Z,97526.59
2019-05-13T06:27:39.363Z,97527.94
2019-05-13T06:30:12.339Z,97532.75
2019-05-13T06:32:42.040Z,97534.41
2019-05-13T06:35:12.662Z,97530.23
2019-05-13T06:37:42.717Z,97534.41
2019-05-13T06:40:12.989Z,97544.57
2019-05-13T06:42:42.633Z,97543.44
2019-05-13T06:45:12.726Z,97551.77
2019-05-13T06:47:42.321Z,97549.59
2019-05-13T06:50:12.170Z,97563.28
2019-05-13T06:52:42.582Z,97553.96
2019-05-13T06:55:12.640Z,97547.28
2019-05-13T06:57:42.396Z,97553.44
2019-05-13T07:00:12.405Z,97565.95
2019-05-13T07:02:42.710Z,97570.13
2019-05-13T07:05:12.915Z,97561.33
2019-05-13T07:07:42.581Z,97555.59
2019-05-13T07:10:12.875Z,97563.43
2019-05-13T07:12:42.525Z,97565.09
2019-05-13T07:15:12.831Z,97571.92
2019-05-13T07:17:42.441Z,97571.29
2019-05-13T07:20:12.371Z,97570.97
2019-05-13T07:22:42.319Z,97576.45
2019-05-13T07:25:12.248Z,97577.77
2019-05-13T07:27:42.540Z,97580.23
2019-05-13T07:30:12.628Z,97583.77
2019-05-13T07:32:42.259Z,97573.22
2019-05-13T07:35:14.335Z,97574.02
2019-05-13T07:37:43.891Z,97574.61
2019-05-13T07:40:13.992Z,97581.78
2019-05-13T07:42:43.585Z,97586.13
2019-05-13T07:45:13.453Z,97586.28
2019-05-13T07:47:43.038Z,97592.92
2019-05-13T07:50:12.967Z,97592.45
2019-05-13T07:52:42.566Z,97587.25
2019-05-13T07:55:13.849Z,97590.86
2019-05-13T07:57:43.439Z,97588.95
2019-05-13T08:00:13.380Z,97595.15
2019-05-13T08:02:43.011Z,97598.33
2019-05-13T08:05:13.929Z,97596.48
2019-05-13T08:07:43.525Z,97604.45
2019-05-13T08:10:13.571Z,97601.85
2019-05-13T08:12:43.234Z,97612.26
2019-05-13T08:15:16.037Z,97613.47
2019-05-13T08:17:47.661Z,97619.70
2019-05-13T08:20:17.596Z,97606.09
2019-05-13T08:22:47.802Z,97614.07
2019-05-13T08:25:17.521Z,97619.75
2019-05-13T08:27:47.234Z,97616.48
2019-05-13T08:30:18.369Z,97619.49
2019-05-13T08:32:48.119Z,97620.27
2019-05-13T08:35:17.818Z,97632.83
2019-05-13T08:37:47.445Z,97635.00
2019-05-13T08:40:20.355Z,97637.00
2019-05-13T08:42:52.010Z,97638.03
2019-05-13T08:45:22.362Z,97633.69
2019-05-13T08:47:52.070Z,97639.42
2019-05-13T08:50:22.164Z,97646.44
2019-05-13T08:52:52.146Z,97644.29
2019-05-13T08:55:21.823Z,97646.45
2019-05-13T08:57:54.735Z,97646.47
2019-05-13T09:00:52.549Z,97651.95
2019-05-13T09:03:22.106Z,97646.44
2019-05-13T09:05:52.706Z,97653.50
2019-05-13T09:08:24.259Z,97648.67
2019-05-13T09:10:56.715Z,97658.16
2019-05-13T09:13:25.439Z,97659.50
2019-05-13T09:15:55.165Z,97661.49
2019-05-13T09:18:24.794Z,97659.83
2019-05-13T09:20:54.458Z,97668.02
2019-05-13T09:23:24.095Z,97666.53
2019-05-13T09:25:53.853Z,97671.87
2019-05-13T09:28:23.664Z,97675.01
2019-05-13T09:30:53.505Z,97672.19
2019-05-13T09:33:23.187Z,97674.51
2019-05-13T09:35:53.748Z,97669.00
2019-05-13T09:38:23.530Z,97672.31
2019-05-13T09:40:53.444Z,97667.52
2019-05-13T09:43:23.161Z,97673.20
2019-05-13T09:45:52.903Z,97682.02
2019-05-13T09:48:22.931Z,97674.18
2019-05-13T09:50:52.579Z,97676.33
2019-05-13T09:53:22.685Z,97672.54
2019-05-13T09:55:52.592Z,97678.56
2019-05-13T09:58:22.762Z,97676.56
2019-05-13T10:00:53.258Z,97676.07
2019-05-13T10:03:28.798Z,97677.25
2019-05-13T10:05:54.359Z,97667.23
2019-05-13T10:08:24.016Z,97677.20
2019-05-13T10:10:53.732Z,97669.16
2019-05-13T10:13:23.494Z,97672.55
2019-05-13T10:15:53.148Z,97663.54
2019-05-13T10:18:22.744Z,97663.20
2019-05-13T10:21:02.069Z,97675.55
2019-05-13T10:23:33.198Z,97671.88
2019-05-13T10:26:07.775Z,97676.73
2019-05-13T10:28:37.672Z,97676.55
2019-05-13T10:31:07.796Z,97666.16
2019-05-13T10:33:37.698Z,97668.21
2019-05-13T10:36:07.609Z,97673.52
2019-05-13T10:38:37.378Z,97671.88
2019-05-13T10:41:07.047Z,97670.19
2019-05-13T10:43:41.459Z,97670.45
2019-05-13T10:46:08.063Z,97668.84
2019-05-13T10:48:37.770Z,97663.42
2019-05-13T10:51:07.400Z,97663.78
2019-05-13T10:53:37.062Z,97666.50
2019-05-13T10:56:06.905Z,97661.98
2019-05-13T10:58:36.496Z,97659.33
2019-05-13T11:01:06.469Z,97662.86
2019-05-13T11:03:36.058Z,97660.47
2019-05-13T11:06:05.901Z,97662.81
2019-05-13T11:08:35.549Z,97657.50
2019-05-13T11:11:05.230Z,97662.19
2019-05-13T11:13:50.520Z,97670.72
2019-05-13T11:16:06.531Z,97667.20
2019-05-13T11:18:36.162Z,97659.83
2019-05-13T11:21:05.824Z,97659.83
2019-05-13T11:23:35.458Z,97656.51
2019-05-13T11:26:05.126Z,97656.02
2019-05-13T11:28:34.808Z,97658.36
2019-05-13T11:31:04.506Z,97663.84
2019-05-13T11:33:34.059Z,97652.84
2019-05-13T11:36:03.797Z,97656.84
2019-05-13T11:38:33.377Z,97655.66
2019-05-13T11:41:03.564Z,97643.13
2019-05-13T11:43:33.853Z,97645.64
2019-05-13T11:46:04.063Z,97643.92
2019-05-13T11:48:33.709Z,97655.31
2019-05-13T11:51:04.312Z,97652.09
2019-05-13T11:53:37.405Z,97649.80
2019-05-13T11:56:05.649Z,97651.77
2019-05-13T11:58:35.282Z,97639.56
2019-05-13T12:01:06.243Z,97631.72
2019-05-13T12:03:35.810Z,97641.85
2019-05-13T12:06:05.950Z,97634.95
2019-05-13T12:08:35.571Z,97643.37
2019-05-13T12:11:05.721Z,97649.22
2019-05-13T12:13:36.319Z,97645.50
2019-05-13T12:16:06.018Z,97640.43
2019-05-13T12:18:43.171Z,97633.50
2019-05-13T12:21:07.030Z,97638.67
2019-05-13T12:23:36.628Z,97633.58
2019-05-13T12:26:06.290Z,97637.39
2019-05-13T12:28:35.968Z,97634.92
2019-05-13T12:31:05.662Z,97635.69
2019-05-13T12:33:35.293Z,97637.89
2019-05-13T12:36:04.954Z,97634.11
2019-05-13T12:38:34.588Z,97631.28
2019-05-13T12:41:05.468Z,97631.03
2019-05-13T12:43:35.219Z,97629.10
2019-05-13T12:46:05.220Z,97628.00
2019-05-13T12:48:34.825Z,97625.17
2019-05-13T12:51:04.458Z,97623.95
2019-05-13T12:53:34.197Z,97611.09
2019-05-13T12:56:04.122Z,97610.44
2019-05-13T12:58:34.449Z,97605.25
2019-05-13T13:01:04.131Z,97604.80
2019-05-13T13:03:33.806Z,97611.00
2019-05-13T13:08:43.488Z,97605.45
2019-05-13T13:11:06.421Z,97597.61
2019-05-13T13:13:57.420Z,97594.03
2019-05-13T13:16:07.659Z,97594.89
2019-05-13T13:18:37.653Z,97590.39
2019-05-13T13:21:08.444Z,97592.29
2019-05-13T13:23:38.335Z,97596.90
2019-05-13T13:28:43.061Z,97588.81
2019-05-13T13:31:12.932Z,97589.88
2019-05-13T13:33:44.446Z,97590.02
2019-05-13T13:36:15.640Z,97588.49
2019-05-13T13:38:45.363Z,97583.48
2019-05-13T13:41:22.475Z,97586.16
2019-05-13T13:43:47.194Z,97589.05
2019-05-13T13:46:36.992Z,97587.74
2019-05-13T13:48:48.159Z,97585.30
2019-05-13T13:51:17.766Z,97582.85
2019-05-13T13:53:47.411Z,97584.63
2019-05-13T13:56:17.006Z,97584.63
2019-05-13T13:58:46.609Z,97581.48
2019-05-13T14:01:19.954Z,97579.47
2019-05-13T14:03:47.548Z,97579.55
2019-05-13T14:06:55.936Z,97594.50
2019-05-13T14:07:09.443Z,97604.23
2019-05-13T14:07:16.580Z,97578.53
2019-05-13T14:08:48.598Z,97584.59
2019-05-13T14:11:18.303Z,97584.72
2019-05-13T14:13:47.972Z,97579.44
2019-05-13T14:16:28.486Z,97587.48
2019-05-13T14:18:48.944Z,97587.76
2019-05-13T14:21:18.567Z,97591.61
2019-05-13T14:23:48.164Z,97585.37
2019-05-13T14:26:17.796Z,97582.17
2019-05-13T14:28:47.529Z,97578.01
2019-05-13T14:31:17.128Z,97578.68
2019-05-13T14:33:46.753Z,97571.75
2019-05-13T14:36:16.524Z,97570.61
2019-05-13T14:38:46.145Z,97572.14
2019-05-13T14:41:15.741Z,97572.78
2019-05-13T14:43:45.355Z,97574.05
2019-05-13T14:46:14.952Z,97572.48
2019-05-13T14:48:44.572Z,97577.86
2019-05-13T14:51:14.343Z,97572.88
2019-05-13T14:53:43.979Z,97567.97
2019-05-13T14:56:14.471Z,97572.77
2019-05-13T14:58:44.268Z,97576.73
2019-05-13T15:01:21.781Z,97579.56
2019-05-13T15:03:45.368Z,97577.91
2019-05-13T15:06:14.967Z,97579.83
2019-05-13T15:08:44.593Z,97576.59
2019-05-13T15:11:14.254Z,97581.42
2019-05-13T15:13:43.876Z,97580.66
2019-05-13T15:16:13.468Z,97578.73
2019-05-13T15:18:43.265Z,97583.27
2019-05-13T15:21:12.895Z,97586.03
2019-05-13T15:23:42.522Z,97583.17
2019-05-13T15:26:12.121Z,97585.55
2019-05-13T15:28:42.305Z,97595.94
2019-05-13T15:31:12.163Z,97592.64
2019-05-13T15:33:41.878Z,97590.70
2019-05-13T15:36:11.909Z,97589.48
2019-05-13T15:38:41.863Z,97591.79
2019-05-13T15:41:15.316Z,97595.25
2019-05-13T15:43:42.821Z,97593.12
2019-05-13T15:46:12.741Z,97597.06
2019-05-13T15:48:42.405Z,97599.75
2019-05-13T15:51:12.206Z,97596.03
2019-05-13T15:53:43.759Z,97589.70
2019-05-13T15:56:13.224Z,97593.30
2019-05-13T15:58:44.546Z,97592.56
2019-05-13T16:01:14.182Z,97597.88
2019-05-13T16:03:43.777Z,97594.97
2019-05-13T16:06:13.407Z,97594.97
2019-05-13T16:08:43.419Z,97599.13
2019-05-13T16:11:13.083Z,97596.28
2019-05-13T16:13:42.984Z,97593.61
2019-05-13T16:16:12.608Z,97597.56
2019-05-13T16:18:42.239Z,97604.85
2019-05-13T16:21:12.185Z,97590.28
2019-05-13T16:23:42.810Z,97597.31
2019-05-13T16:26:12.601Z,97591.00
2019-05-13T16:28:42.400Z,97601.16
2019-05-13T16:31:12.154Z,97604.16
2019-05-13T16:33:41.945Z,97599.41
2019-05-13T16:36:12.738Z,97598.77
2019-05-13T16:38:42.652Z,97598.66
2019-05-13T16:41:12.649Z,97609.09
2019-05-13T16:43:42.834Z,97609.10
2019-05-13T16:46:12.559Z,97609.20
2019-05-13T16:48:42.258Z,97615.78
2019-05-13T16:51:12.774Z,97614.01
2019-05-13T16:53:42.601Z,97612.35
2019-05-13T16:56:25.785Z,97614.70
2019-05-13T16:58:43.710Z,97610.55
2019-05-13T17:01:13.306Z,97617.72
2019-05-13T17:03:42.972Z,97619.71
2019-05-13T17:06:12.897Z,97617.88
2019-05-13T17:08:42.734Z,97621.73
2019-05-13T17:11:12.488Z,97622.04
2019-05-13T17:13:42.754Z,97625.07
2019-05-13T17:16:13.150Z,97633.42
2019-05-13T17:18:42.738Z,97632.07
2019-05-13T17:21:12.427Z,97631.78
2019-05-13T17:23:42.076Z,97635.30
2019-05-13T17:26:11.835Z,97638.14
2019-05-13T17:28:41.945Z,97639.14
2019-05-13T17:31:11.813Z,97631.94
2019-05-13T17:33:41.439Z,97632.45
2019-05-13T17:36:12.343Z,97644.50
2019-05-13T17:38:42.558Z,97643.64
2019-05-13T17:41:12.383Z,97637.77
2019-05-13T17:43:42.051Z,97645.82
2019-05-13T17:46:11.647Z,97654.47
2019-05-13T17:48:41.669Z,97655.81
2019-05-13T17:51:13.128Z,97651.64
2019-05-13T17:53:42.683Z,97653.13
2019-05-13T17:56:12.303Z,97656.34
2019-05-13T17:58:42.126Z,97661.53
2019-05-13T18:01:12.142Z,97655.84
2019-05-13T18:03:41.778Z,97665.88
2019-05-13T18:06:11.607Z,97671.22
2019-05-13T18:08:41.355Z,97676.38
2019-05-13T18:11:11.496Z,97677.55
2019-05-13T18:13:43.611Z,97673.14
2019-05-13T18:16:12.718Z,97676.30
2019-05-13T18:18:46.987Z,97680.78
2019-05-13T18:21:13.775Z,97677.27
2019-05-13T18:23:43.361Z,97675.14
2019-05-13T18:26:16.102Z,97674.95
2019-05-13T18:28:44.299Z,97669.78
2019-05-13T18:31:13.927Z,97673.80
2019-05-13T18:33:43.523Z,97675.50
2019-05-13T18:36:13.156Z,97682.13
2019-05-13T18:38:42.764Z,97685.51
2019-05-13T18:41:12.397Z,97678.53
2019-05-13T18:43:41.995Z,97683.58
2019-05-13T18:46:12.353Z,97680.23
2019-05-13T18:48:57.699Z,97700.42
2019-05-13T18:51:13.523Z,97701.89
2019-05-13T18:53:43.147Z,97691.89
2019-05-13T18:56:12.744Z,97690.91
2019-05-13T18:58:42.375Z,97679.06
2019-05-13T19:01:12.047Z,97684.58
2019-05-13T19:03:41.664Z,97687.19
2019-05-13T19:06:11.742Z,97681.84
2019-05-13T19:08:41.582Z,97679.64
2019-05-13T19:11:12.005Z,97672.62
2019-05-13T19:13:41.886Z,97677.63
2019-05-13T19:16:11.884Z,97685.80
2019-05-13T19:18:42.310Z,97696.84
2019-05-13T19:21:12.073Z,97687.36
2019-05-13T19:23:41.987Z,97694.13
2019-05-13T19:26:11.576Z,97698.32
2019-05-13T19:28:41.209Z,97696.48
2019-05-13T19:31:11.569Z,97698.27
2019-05-13T19:33:41.615Z,97697.18
2019-05-13T19:36:11.778Z,97697.79
2019-05-13T19:38:42.290Z,97694.25
2019-05-13T19:41:11.963Z,97701.75
2019-05-13T19:43:42.109Z,97696.09
2019-05-13T19:46:11.766Z,97700.79
2019-05-13T19:48:41.817Z,97692.70
2019-05-13T19:51:11.456Z,97700.10
2019-05-13T19:53:43.102Z,97699.55
2019-05-13T19:56:12.395Z,97702.02
2019-05-13T19:58:41.988Z,97691.00
2019-05-13T20:01:11.866Z,97693.03
2019-05-13T20:03:42.257Z,97694.74
2019-05-13T20:06:12.327Z,97690.20
2019-05-13T20:08:42.069Z,97692.70
2019-05-13T20:11:11.776Z,97687.72
2019-05-13T20:13:41.910Z,97690.52
2019-05-13T20:16:11.904Z,97691.72
2019-05-13T20:18:41.663Z,97679.16
2019-05-13T20:21:13.519Z,97682.33
2019-05-13T20:23:42.685Z,97674.17
2019-05-13T20:26:12.316Z,97685.83
2019-05-13T20:28:42.111Z,97679.51
2019-05-13T20:31:11.747Z,97682.71
2019-05-13T20:33:42.962Z,97680.69
2019-05-13T20:36:12.745Z,97675.25
2019-05-13T20:38:42.371Z,97671.66
2019-05-13T20:41:11.962Z,97674.75
2019-05-13T20:43:42.534Z,97674.99
2019-05-13T20:46:12.438Z,97672.53
2019-05-13T20:48:42.034Z,97672.86
2019-05-13T20:51:11.654Z,97675.33
2019-05-13T20:53:41.383Z,97674.30
2019-05-13T20:56:11.050Z,97675.17
2019-05-13T20:58:42.144Z,97677.78
2019-05-13T21:01:11.854Z,97676.48
2019-05-13T21:03:41.984Z,97678.84
2019-05-13T21:06:11.887Z,97666.86
2019-05-13T21:08:41.629Z,97671.95
2019-05-13T21:11:11.569Z,97672.38
2019-05-13T21:13:41.365Z,97678.08
2019-05-13T21:16:11.546Z,97676.22
2019-05-13T21:18:42.001Z,97675.00
2019-05-13T21:21:12.005Z,97669.97
2019-05-13T21:23:41.880Z,97674.63
2019-05-13T21:26:14.941Z,97670.02
2019-05-13T21:28:42.853Z,97678.62
2019-05-13T21:31:12.480Z,97679.63
2019-05-13T21:33:42.093Z,97671.30
2019-05-13T21:36:12.361Z,97668.96
2019-05-13T21:38:42.203Z,97670.06
2019-05-13T21:41:11.921Z,97655.42
2019-05-13T21:43:41.558Z,97651.06
2019-05-13T21:46:12.028Z,97654.45
2019-05-13T21:48:41.855Z,97656.23
2019-05-13T21:51:13.533Z,97659.72
2019-05-13T21:53:42.789Z,97663.75
2019-05-13T21:56:12.404Z,97668.14
2019-05-13T21:58:42.024Z,97660.00
2019-05-13T22:01:11.712Z,97662.93
2019-05-13T22:03:42.032Z,97649.48
2019-05-13T22:06:11.861Z,97648.81
2019-05-13T22:08:41.516Z,97645.15
2019-05-13T22:11:12.019Z,97630.84
2019-05-13T22:13:42.054Z,97636.72
2019-05-13T22:16:11.693Z,97640.69
2019-05-13T22:18:41.739Z,97641.47
2019-05-13T22:21:11.938Z,97636.42
2019-05-13T22:23:41.641Z,97635.45
2019-05-13T22:26:11.760Z,97627.13
2019-05-13T22:28:41.838Z,97622.11
2019-05-13T22:31:11.736Z,97620.05
2019-05-13T22:33:41.421Z,97618.11
2019-05-13T22:36:11.842Z,97620.59
2019-05-13T22:38:42.693Z,97629.91
2019-05-13T22:41:12.437Z,97624.67
2019-05-13T22:43:54.636Z,97613.64
2019-05-13T22:46:14.187Z,97621.97
2019-05-13T22:48:43.911Z,97617.00
2019-05-13T22:51:13.506Z,97622.36
2019-05-13T22:53:43.134Z,97622.64
2019-05-13T22:56:12.749Z,97612.48
2019-05-13T22:58:42.372Z,97616.13
2019-05-13T23:01:12.021Z,97616.09
2019-05-13T23:03:41.745Z,97617.34
2019-05-13T23:06:12.126Z,97617.81
2019-05-13T23:08:41.893Z,97611.67
2019-05-13T23:11:11.478Z,97613.19
2019-05-13T23:13:42.140Z,97617.15
2019-05-13T23:16:11.975Z,97617.84
2019-05-13T23:18:42.182Z,97606.83
2019-05-13T23:21:11.937Z,97616.30
2019-05-13T23:23:41.830Z,97615.58
2019-05-13T23:26:11.998Z,97614.22
2019-05-13T23:28:41.747Z,97605.44
2019-05-13T23:31:12.334Z,97603.97
2019-05-13T23:33:42.070Z,97599.80
2019-05-13T23:36:12.114Z,97606.67
2019-05-13T23:38:41.855Z,97603.48
2019-05-13T23:41:11.717Z,97599.04
2019-05-13T23:43:41.420Z,97599.16
2019-05-13T23:46:11.769Z,97593.20
2019-05-13T23:48:42.433Z,97592.28
2019-05-13T23:51:12.940Z,97587.67
2019-05-13T23:53:42.725Z,97584.74
2019-05-13T23:56:12.354Z,97582.08
2019-05-13T23:58:41.941Z,97577.95
